Time;durP1;ratioP1;P1;durP2;ratioP2;P2;SDS_P1;SDS_P2;PMS_P1;PMS_P2;Temp;Humidity;BMP_temperature;BMP_pressure;BME280_temperature;BME280_humidity;BME280_pressure;Samples;Min_cycle;Max_cycle;Signal;HPM_P1;HPM_P2
2022/12/28 00:01:16;;;;;;;8.60;3.50;;;;;;;4.60;100.00;101508.13;5008695;28;20056;-65
2022/12/28 00:03:42;;;;;;;5.30;2.93;;;;;;;4.58;100.00;101514.81;5005591;28;20061;-65
2022/12/28 00:06:08;;;;;;;4.60;3.10;;;;;;;4.60;100.00;101514.94;5007282;28;20456;-65
2022/12/28 00:08:34;;;;;;;4.80;2.87;;;;;;;4.61;100.00;101512.47;5012061;28;20386;-65
2022/12/28 00:11:01;;;;;;;8.50;3.40;;;;;;;4.61;100.00;101504.75;5007878;28;20018;-65
2022/12/28 00:13:29;;;;;;;5.63;3.17;;;;;;;4.59;100.00;101496.06;5011191;28;20034;-66
2022/12/28 00:15:54;;;;;;;8.20;3.60;;;;;;;4.61;100.00;101491.00;5008398;28;20028;-66
2022/12/28 00:18:19;;;;;;;9.13;3.47;;;;;;;4.62;100.00;101464.56;5018318;28;20049;-66
2022/12/28 00:20:58;;;;;;;5.27;3.23;;;;;;;4.66;100.00;101456.25;5022889;28;20449;-66
2022/12/28 00:23:24;;;;;;;6.17;3.30;;;;;;;4.65;100.00;101449.38;5026121;28;20040;-66
2022/12/28 00:25:49;;;;;;;5.60;3.30;;;;;;;4.66;100.00;101454.59;5026323;28;20064;-66
2022/12/28 00:28:14;;;;;;;6.57;3.20;;;;;;;4.67;100.00;101447.78;5025468;28;20052;-66
2022/12/28 00:30:40;;;;;;;5.37;3.30;;;;;;;4.71;100.00;101426.66;5012913;28;20104;-66
2022/12/28 00:33:05;;;;;;;9.23;3.42;;;;;;;4.74;100.00;101432.00;5026041;28;20037;-66
2022/12/28 00:35:30;;;;;;;7.30;3.17;;;;;;;4.73;100.00;101432.78;5025776;28;20083;-66
2022/12/28 00:37:55;;;;;;;6.20;3.17;;;;;;;4.73;100.00;101437.91;5025600;28;20040;-66
2022/12/28 00:40:21;;;;;;;5.70;3.10;;;;;;;4.74;100.00;101415.69;5025874;28;20071;-66
2022/12/28 00:42:46;;;;;;;7.60;3.90;;;;;;;4.76;100.00;101415.03;5028183;28;20029;-66
2022/12/28 00:45:11;;;;;;;6.93;3.23;;;;;;;4.79;100.00;101410.06;5029328;28;20030;-66
2022/12/28 00:47:37;;;;;;;7.33;3.47;;;;;;;4.82;100.00;101411.06;5029247;28;20389;-66
2022/12/28 00:50:02;;;;;;;5.93;3.42;;;;;;;4.86;100.00;101402.75;5028799;28;20049;-66
2022/12/28 00:52:27;;;;;;;7.07;3.60;;;;;;;4.87;100.00;101394.28;5029592;28;20029;-66
2022/12/28 00:54:52;;;;;;;5.95;3.97;;;;;;;4.87;100.00;101390.03;5028165;28;20112;-66
2022/12/28 00:57:18;;;;;;;4.73;3.47;;;;;;;4.90;100.00;101389.31;5029157;28;20025;-66
2022/12/28 00:59:43;;;;;;;4.93;2.83;;;;;;;4.93;100.00;101384.38;5028119;28;20041;-66
2022/12/28 01:02:08;;;;;;;5.78;2.78;;;;;;;4.96;100.00;101379.47;5030020;28;20466;-66
2022/12/28 01:04:33;;;;;;;7.13;3.20;;;;;;;5.00;100.00;101383.13;5027472;28;20061;-66
2022/12/28 01:06:59;;;;;;;5.43;3.53;;;;;;;4.98;100.00;101362.47;5029409;28;20029;-66
2022/12/28 01:09:24;;;;;;;5.33;3.47;;;;;;;5.03;100.00;101371.34;5014969;28;20057;-66
2022/12/28 01:11:49;;;;;;;4.50;3.05;;;;;;;5.07;100.00;101361.25;5009938;28;20026;-66
2022/12/28 01:14:14;;;;;;;6.83;3.10;;;;;;;5.07;100.00;101363.84;5009983;28;20058;-66
2022/12/28 01:16:40;;;;;;;6.40;3.40;;;;;;;5.07;100.00;101356.13;5016904;28;20029;-66
2022/12/28 01:19:06;;;;;;;5.93;3.38;;;;;;;5.07;100.00;101361.25;5029318;28;20066;-66
2022/12/28 01:21:32;;;;;;;4.60;3.27;;;;;;;5.08;100.00;101357.88;5029137;28;20033;-66
2022/12/28 01:24:00;;;;;;;6.57;3.60;;;;;;;5.11;100.00;101358.09;5029174;28;20025;-66
2022/12/28 01:26:28;;;;;;;4.70;3.40;;;;;;;5.12;100.00;101347.03;5028979;28;20068;-66
2022/12/28 01:28:53;;;;;;;5.78;3.97;;;;;;;5.16;100.00;101356.72;5023151;28;20516;-66
2022/12/28 01:31:20;;;;;;;4.32;3.20;;;;;;;5.14;100.00;101363.41;5024650;28;20235;-66
2022/12/28 01:33:46;;;;;;;4.22;3.55;;;;;;;5.15;100.00;101353.25;5009386;28;20084;-66
2022/12/28 01:36:15;;;;;;;5.53;3.50;;;;;;;5.18;100.00;101349.94;5009000;28;20021;-66
2022/12/28 01:38:41;;;;;;;4.68;3.30;;;;;;;5.20;100.00;101345.81;5009196;28;20042;-66
2022/12/28 01:41:08;;;;;;;4.13;2.65;;;;;;;5.23;100.00;101333.16;5009716;28;20454;-66
2022/12/28 01:43:39;;;;;;;7.75;3.30;;;;;;;5.31;100.00;101328.47;5009032;28;20029;-66
2022/12/28 01:46:05;;;;;;;;;;;;;;;5.35;100.00;101337.25;5009895;28;20478;-66
2022/12/28 01:48:33;;;;;;;7.45;3.20;;;;;;;5.36;100.00;101323.63;5009030;28;19948;-66
2022/12/28 01:50:59;;;;;;;7.30;3.37;;;;;;;5.40;100.00;101323.00;5008892;28;20058;-66
2022/12/28 01:53:24;;;;;;;3.55;2.53;;;;;;;5.41;100.00;101324.81;5009929;28;20038;-65
2022/12/28 01:55:49;;;;;;;9.88;3.70;;;;;;;5.41;100.00;101309.38;5019784;28;20033;-66
2022/12/28 01:58:30;;;;;;;6.30;3.73;;;;;;;5.44;100.00;101316.38;5009969;28;20481;-66
2022/12/28 02:00:55;;;;;;;5.03;3.03;;;;;;;5.47;100.00;101309.75;5010280;28;20109;-66
2022/12/28 02:03:28;;;;;;;6.18;3.28;;;;;;;5.51;100.00;101291.13;5014642;28;20523;-66
2022/12/28 02:05:57;;;;;;;6.22;3.17;;;;;;;5.52;100.00;101285.19;5016630;28;20442;-66
2022/12/28 02:08:31;;;;;;;4.80;2.92;;;;;;;5.54;100.00;101277.56;5021737;28;20030;-66
2022/12/28 02:10:56;;;;;;;7.00;3.60;;;;;;;5.57;100.00;101269.16;5010928;28;20033;-66
2022/12/28 02:13:23;;;;;;;7.80;3.30;;;;;;;5.59;100.00;101254.72;5021225;28;20410;-66
2022/12/28 02:15:50;;;;;;;5.15;2.70;;;;;;;5.65;100.00;101255.06;5010591;28;20537;-66
2022/12/28 02:18:18;;;;;;;6.40;3.20;;;;;;;5.67;100.00;101258.63;5009617;28;20025;-66
2022/12/28 02:21:07;;;;;;;6.57;3.03;;;;;;;5.71;100.00;101250.28;5022243;28;20382;-66
2022/12/28 02:23:37;;;;;;;3.80;2.60;;;;;;;5.75;100.00;101236.81;5009599;28;20029;-66
2022/12/28 02:26:20;;;;;;;3.17;2.63;;;;;;;5.80;100.00;101224.22;5008647;28;20057;-66
2022/12/28 02:29:35;;;;;;;5.00;3.20;;;;;;;5.84;100.00;101215.91;5020860;28;20437;-66
2022/12/28 02:32:14;;;;;;;4.15;2.67;;;;;;;5.86;100.00;101218.56;5008395;28;20037;-66
2022/12/28 02:34:53;;;;;;;5.22;3.30;;;;;;;5.86;100.00;101219.41;5015793;28;20458;-66
2022/12/28 02:37:23;;;;;;;5.13;3.13;;;;;;;5.83;100.00;101200.38;5027047;28;20518;-66
2022/12/28 02:39:55;;;;;;;4.53;3.10;;;;;;;5.82;100.00;101204.63;5027282;28;20059;-66
2022/12/28 02:42:23;;;;;;;4.82;3.10;;;;;;;5.82;100.00;101201.16;5026615;28;20031;-66
2022/12/28 02:50:18;;;;;;;4.18;3.25;;;;;;;5.81;100.00;101204.53;5026567;28;20092;-66
2022/12/28 02:53:16;;;;;;;5.13;3.03;;;;;;;5.77;100.00;101194.06;5027355;28;20053;-66
2022/12/28 02:56:16;;;;;;;4.75;3.30;;;;;;;5.70;100.00;101197.06;5027407;28;20025;-67
2022/12/28 02:59:00;;;;;;;5.18;4.00;;;;;;;5.70;100.00;101186.78;5026369;28;20029;-66
2022/12/28 03:01:50;;;;;;;5.65;3.75;;;;;;;5.68;100.00;101183.25;5026551;28;20745;-66
2022/12/28 03:04:28;;;;;;;8.35;4.10;;;;;;;5.68;100.00;101190.09;5015198;28;20038;-66
2022/12/28 03:10:12;;;;;;;5.03;3.95;;;;;;;5.65;100.00;101172.78;5007448;28;20045;-66
2022/12/28 03:12:44;;;;;;;5.97;4.35;;;;;;;5.65;100.00;101172.78;4999171;28;20033;-66
2022/12/28 03:15:35;;;;;;;6.55;3.92;;;;;;;5.62;100.00;101167.47;5007756;28;20101;-66
2022/12/28 03:32:02;;;;;;;7.68;5.35;;;;;;;5.58;100.00;101155.22;5027123;28;20442;-66
2022/12/28 03:34:27;;;;;;;7.13;5.28;;;;;;;5.57;100.00;101143.19;5026501;28;20108;-66
2022/12/28 03:37:16;;;;;;;6.40;5.75;;;;;;;5.56;100.00;101149.13;5027141;28;20029;-66
2022/12/28 03:39:54;;;;;;;7.22;5.63;;;;;;;5.55;100.00;101144.78;5027528;28;20021;-66
2022/12/28 03:45:35;;;;;;;9.15;5.90;;;;;;;5.60;100.00;101135.63;5007141;28;20029;-66
2022/12/28 03:48:02;;;;;;;7.75;5.75;;;;;;;5.59;100.00;101133.88;5007450;28;20022;-66
2022/12/28 03:50:29;;;;;;;7.85;5.82;;;;;;;5.59;100.00;101149.28;5007273;28;20128;-66
2022/12/28 03:52:56;;;;;;;5.78;5.28;;;;;;;5.60;100.00;101135.63;5007531;28;20418;-66
2022/12/28 03:55:23;;;;;;;7.72;5.40;;;;;;;5.62;100.00;101134.94;5018638;28;20129;-66
2022/12/28 03:57:48;;;;;;;6.72;5.80;;;;;;;5.67;100.00;101129.19;5014570;28;20021;-66
2022/12/28 04:00:14;;;;;;;7.60;5.80;;;;;;;5.69;100.00;101127.56;5014975;28;20433;-66
2022/12/28 04:02:39;;;;;;;8.55;5.60;;;;;;;5.71;100.00;101114.00;5008975;28;20132;-66
2022/12/28 04:05:05;;;;;;;8.38;5.47;;;;;;;5.73;100.00;101122.69;5008502;28;20030;-66
2022/12/28 04:07:30;;;;;;;7.05;5.35;;;;;;;5.75;100.00;101121.09;5009453;28;20076;-66
2022/12/28 04:09:55;;;;;;;8.50;5.32;;;;;;;5.75;100.00;101115.94;5008454;28;20080;-66
2022/12/28 04:12:21;;;;;;;8.02;4.95;;;;;;;5.76;100.00;101115.13;5009279;28;20062;-66
2022/12/28 04:14:46;;;;;;;5.75;5.07;;;;;;;5.79;100.00;101114.44;5008143;28;20517;-66
2022/12/28 04:17:11;;;;;;;8.02;4.80;;;;;;;5.80;100.00;101116.19;5009932;28;20025;-66
2022/12/28 04:19:37;;;;;;;7.63;4.85;;;;;;;5.81;100.00;101111.94;5021020;28;20045;-66
2022/12/28 04:22:02;;;;;;;6.95;4.75;;;;;;;5.86;100.00;101111.38;5029644;28;20060;-66
2022/12/28 04:24:27;;;;;;;7.68;4.70;;;;;;;5.91;100.00;101108.19;5029501;28;20475;-66
2022/12/28 04:26:53;;;;;;;4.88;4.43;;;;;;;5.94;100.00;101108.34;5028601;28;20052;-66
2022/12/28 04:29:18;;;;;;;5.53;4.45;;;;;;;5.96;100.00;101112.78;5029964;28;20025;-66
2022/12/28 04:31:43;;;;;;;6.68;4.25;;;;;;;5.98;100.00;101115.44;5029800;28;20025;-66
2022/12/28 04:34:10;;;;;;;9.13;4.38;;;;;;;6.01;100.00;101111.34;5013356;28;20018;-66
2022/12/28 04:36:35;;;;;;;6.82;4.03;;;;;;;6.04;100.00;101115.78;5020912;28;20025;-66
2022/12/28 04:39:00;;;;;;;5.10;4.25;;;;;;;6.09;100.00;101116.06;5016093;28;20112;-67
2022/12/28 04:41:26;;;;;;;5.82;3.92;;;;;;;6.09;100.00;101106.66;5030591;28;20040;-66
2022/12/28 04:43:53;;;;;;;5.90;3.65;;;;;;;6.15;100.00;101106.13;5035620;28;20580;-67
2022/12/28 04:46:19;;;;;;;5.80;4.00;;;;;;;6.18;100.00;101098.56;5039278;28;20029;-66
2022/12/28 04:48:44;;;;;;;7.28;3.53;;;;;;;6.20;100.00;101099.53;5033931;28;20087;-67
2022/12/28 04:51:12;;;;;;;6.38;4.10;;;;;;;6.23;100.00;101097.13;5027395;28;20481;-66
2022/12/28 04:53:39;;;;;;;4.90;4.38;;;;;;;6.24;100.00;101109.19;5015850;28;20033;-67
2022/12/28 04:56:06;;;;;;;6.07;3.95;;;;;;;6.26;100.00;101103.25;5012073;28;20264;-66
2022/12/28 04:58:31;;;;;;;6.90;4.75;;;;;;;6.27;100.00;101102.44;5013180;28;20404;-67
2022/12/28 05:01:05;;;;;;;6.45;4.53;;;;;;;6.26;100.00;101098.09;5012147;28;20030;-66
2022/12/28 05:03:30;;;;;;;7.55;4.85;;;;;;;6.25;100.00;101099.78;5017009;28;20435;-66
2022/12/28 05:06:00;;;;;;;9.93;5.35;;;;;;;6.29;100.00;101091.44;5019130;28;20429;-67
2022/12/28 05:08:25;;;;;;;6.88;4.22;;;;;;;6.30;100.00;101084.56;5013570;28;20033;-66
2022/12/28 05:10:50;;;;;;;6.57;4.70;;;;;;;6.32;100.00;101085.53;5012124;28;20037;-65
2022/12/28 05:13:15;;;;;;;5.32;4.53;;;;;;;6.31;100.00;101104.38;5013417;28;20037;-65
2022/12/28 05:15:41;;;;;;;6.55;4.13;;;;;;;6.33;100.00;101074.47;5011328;28;20117;-65
2022/12/28 05:18:06;;;;;;;9.50;4.40;;;;;;;6.34;100.00;101087.41;5010023;28;20506;-65
2022/12/28 05:20:31;;;;;;;6.38;4.82;;;;;;;6.35;100.00;101080.56;5019460;28;20070;-65
2022/12/28 05:22:56;;;;;;;7.05;5.03;;;;;;;6.35;100.00;101075.44;5028196;28;20068;-65
2022/12/28 05:25:22;;;;;;;6.28;4.85;;;;;;;6.35;100.00;101080.56;5033964;28;20091;-66
2022/12/28 05:27:47;;;;;;;6.30;4.70;;;;;;;6.36;100.00;101087.47;5013494;28;20221;-65
2022/12/28 05:30:12;;;;;;;6.80;4.38;;;;;;;6.37;100.00;101073.78;5021012;28;20029;-65
2022/12/28 05:32:37;;;;;;;7.47;5.28;;;;;;;6.36;100.00;101082.34;5011838;28;20028;-65
2022/12/28 05:35:03;;;;;;;7.60;5.40;;;;;;;6.35;100.00;101076.28;5013754;28;20021;-66
2022/12/28 05:37:28;;;;;;;8.35;5.50;;;;;;;6.36;100.00;101083.22;5009272;28;20470;-66
2022/12/28 05:39:53;;;;;;;7.75;4.93;;;;;;;6.37;100.00;101078.94;5011036;28;20029;-66
2022/12/28 05:42:19;;;;;;;7.45;4.80;;;;;;;6.35;100.00;101086.59;5010297;28;20026;-66
2022/12/28 05:44:44;;;;;;;8.85;4.57;;;;;;;6.38;100.00;101090.13;5010744;28;20421;-66
2022/12/28 05:47:09;;;;;;;5.28;4.25;;;;;;;6.38;100.00;101085.88;5008833;28;20037;-65
2022/12/28 05:49:34;;;;;;;6.50;4.53;;;;;;;6.40;100.00;101093.69;5009590;28;20040;-66
2022/12/28 05:52:00;;;;;;;9.10;5.30;;;;;;;6.40;100.00;101089.44;5009103;28;20046;-65
2022/12/28 05:54:25;;;;;;;6.25;4.85;;;;;;;6.42;100.00;101087.78;5021262;28;20227;-66
2022/12/28 05:56:51;;;;;;;5.53;4.93;;;;;;;6.44;100.00;101075.03;5009110;28;20503;-66
2022/12/28 05:59:17;;;;;;;5.75;5.07;;;;;;;6.46;100.00;101083.69;5013087;28;20021;-66
2022/12/28 06:01:43;;;;;;;8.02;5.30;;;;;;;6.47;100.00;101070.03;5028834;28;20144;-66
2022/12/28 06:04:16;;;;;;;5.78;4.63;;;;;;;6.46;100.00;101074.28;5027557;28;20032;-66
2022/12/28 06:06:43;;;;;;;5.78;4.63;;;;;;;6.48;100.00;101069.22;5028058;28;20033;-65
2022/12/28 06:09:08;;;;;;;7.22;4.55;;;;;;;6.47;100.00;101060.63;5025821;28;20515;-66
2022/12/28 06:11:34;;;;;;;7.78;4.57;;;;;;;6.48;100.00;101061.50;5027480;28;20073;-65
2022/12/28 06:14:01;;;;;;;7.57;4.70;;;;;;;6.50;100.00;101057.31;5026942;28;20351;-65
2022/12/28 06:16:28;;;;;;;6.30;4.95;;;;;;;6.49;100.00;101043.53;5017116;28;20038;-66
2022/12/28 06:18:54;;;;;;;5.78;4.38;;;;;;;6.52;100.00;101049.66;5025848;28;20025;-66
2022/12/28 06:21:22;;;;;;;4.45;4.05;;;;;;;6.52;100.00;101041.94;5028206;28;20366;-65
2022/12/28 06:23:49;;;;;;;8.07;4.57;;;;;;;6.52;100.00;101045.41;5027623;28;20556;-66
2022/12/28 06:26:16;;;;;;;5.75;4.72;;;;;;;6.54;100.00;101040.34;5028279;28;20386;-66
2022/12/28 06:28:42;;;;;;;5.30;4.45;;;;;;;6.56;100.00;101038.72;5027750;28;20064;-66
2022/12/28 06:31:13;;;;;;;6.85;4.50;;;;;;;6.53;100.00;101031.72;5027306;28;20025;-66
2022/12/28 06:33:39;;;;;;;5.80;4.82;;;;;;;6.55;100.00;101031.81;5027681;28;20108;-66
2022/12/28 06:36:10;;;;;;;6.03;4.18;;;;;;;6.56;100.00;101037.03;5027325;28;20027;-66
2022/12/28 06:38:36;;;;;;;4.90;4.50;;;;;;;6.56;100.00;101036.16;5026719;28;20034;-65
2022/12/28 06:41:03;;;;;;;4.68;4.20;;;;;;;6.55;100.00;101024.97;5026260;28;20032;-65
2022/12/28 06:43:33;;;;;;;7.13;4.55;;;;;;;6.58;100.00;101026.81;5026261;28;20478;-66
2022/12/28 06:45:59;;;;;;;7.43;4.50;;;;;;;6.58;100.00;101012.22;5027223;28;20032;-65
2022/12/28 06:48:25;;;;;;;6.63;4.80;;;;;;;6.59;100.00;101023.44;5026415;28;20544;-66
2022/12/28 06:51:01;;;;;;;4.63;4.05;;;;;;;6.61;100.00;101024.41;5026840;28;20049;-66
2022/12/28 06:53:29;;;;;;;6.25;4.25;;;;;;;6.62;100.00;101023.56;5026179;28;20113;-66
2022/12/28 06:55:59;;;;;;;5.00;4.45;;;;;;;6.64;100.00;101018.53;5027843;28;20144;-65
2022/12/28 06:58:26;;;;;;;4.68;4.28;;;;;;;6.65;100.00;101016.03;5027475;28;20595;-66
2022/12/28 07:00:51;;;;;;;6.70;4.63;;;;;;;6.67;100.00;101011.84;5026050;28;20278;-66
2022/12/28 07:03:16;;;;;;;5.97;4.25;;;;;;;6.67;100.00;101016.09;5027414;28;20045;-65
2022/12/28 07:05:42;;;;;;;7.18;4.53;;;;;;;6.67;100.00;101009.28;5027384;28;20480;-66
2022/12/28 07:08:07;;;;;;;6.82;4.95;;;;;;;6.67;100.00;101017.00;5026583;28;20099;-66
2022/12/28 07:10:33;;;;;;;8.07;4.78;;;;;;;6.68;100.00;101013.59;5027066;28;20033;-66
2022/12/28 07:12:59;;;;;;;5.63;5.13;;;;;;;6.69;100.00;101007.63;5026882;28;20112;-66
2022/12/28 07:15:24;;;;;;;9.63;4.93;;;;;;;6.71;100.00;101003.44;5025091;28;20052;-66
2022/12/28 07:17:50;;;;;;;8.20;4.22;;;;;;;6.71;100.00;101008.59;5016141;28;20029;-66
2022/12/28 07:20:15;;;;;;;7.97;4.13;;;;;;;6.71;100.00;101000.88;5026689;28;20388;-65
2022/12/28 07:22:40;;;;;;;4.88;3.83;;;;;;;6.72;100.00;101004.34;5026417;28;20095;-66
2022/12/28 07:25:06;;;;;;;5.03;4.07;;;;;;;6.75;100.00;101008.75;5023842;28;20036;-66
2022/12/28 07:27:33;;;;;;;3.78;3.40;;;;;;;6.76;100.00;100997.66;5013634;28;20038;-65
2022/12/28 07:29:59;;;;;;;4.40;3.72;;;;;;;6.76;100.00;101005.38;5017656;28;20030;-66
2022/12/28 07:32:24;;;;;;;7.38;3.97;;;;;;;6.77;100.00;101012.28;5022089;28;20025;-65
2022/12/28 07:34:49;;;;;;;5.07;4.00;;;;;;;6.77;100.00;101002.88;5021317;28;20079;-66
2022/12/28 07:37:14;;;;;;;5.90;3.70;;;;;;;6.78;100.00;101006.34;5021306;28;20030;-66
2022/12/28 07:39:40;;;;;;;4.00;3.53;;;;;;;6.78;100.00;101003.78;5015110;28;20075;-66
2022/12/28 07:42:09;;;;;;;4.25;3.30;;;;;;;6.80;100.00;100991.84;5035070;28;20482;-66
2022/12/28 07:44:34;;;;;;;3.33;3.03;;;;;;;6.80;100.00;101002.16;5015838;28;20029;-66
2022/12/28 07:47:00;;;;;;;4.57;3.78;;;;;;;6.80;100.00;101004.72;5014853;28;20029;-65
2022/12/28 07:49:25;;;;;;;4.88;3.17;;;;;;;6.82;100.00;101003.09;5018149;28;20033;-66
2022/12/28 07:51:50;;;;;;;4.57;3.30;;;;;;;6.83;100.00;101007.47;5010838;28;20046;-66
2022/12/28 07:54:15;;;;;;;4.13;3.30;;;;;;;6.82;100.00;101005.66;5014089;28;20213;-65
2022/12/28 07:56:41;;;;;;;4.05;3.17;;;;;;;6.85;100.00;101000.69;5028283;28;20437;-66
2022/12/28 07:59:06;;;;;;;6.07;3.30;;;;;;;6.84;100.00;100999.81;5029102;28;20037;-66
2022/12/28 08:01:34;;;;;;;5.07;4.07;;;;;;;6.87;100.00;101017.13;5014862;28;20386;-65
2022/12/28 08:04:02;;;;;;;6.90;3.55;;;;;;;6.88;100.00;101011.16;5017178;28;20014;-65
2022/12/28 08:06:29;;;;;;;6.35;3.60;;;;;;;6.88;100.00;101006.00;5012912;28;20026;-66
2022/12/28 08:08:58;;;;;;;4.15;3.25;;;;;;;6.90;100.00;101014.69;5011518;28;20030;-65
2022/12/28 08:11:25;;;;;;;4.95;3.00;;;;;;;6.90;100.00;101008.63;5023992;28;20030;-66
2022/12/28 08:13:53;;;;;;;5.88;3.53;;;;;;;6.91;100.00;101007.81;5013221;28;20117;-65
2022/12/28 08:16:20;;;;;;;5.07;3.38;;;;;;;6.92;100.00;101004.44;5011832;28;20052;-66
2022/12/28 08:18:46;;;;;;;8.20;3.88;;;;;;;6.93;100.00;101007.09;5011969;28;20101;-66
2022/12/28 08:21:17;;;;;;;4.30;3.55;;;;;;;6.94;100.00;101010.56;5011268;28;20021;-65
2022/12/28 08:23:42;;;;;;;4.72;3.65;;;;;;;6.98;100.00;101007.31;5012037;28;20509;-66
2022/12/28 08:26:16;;;;;;;5.30;3.35;;;;;;;6.97;100.00;100998.72;5020183;28;20022;-67
2022/12/28 08:28:43;;;;;;;7.40;3.65;;;;;;;6.99;100.00;100996.22;5014688;28;20193;-65
2022/12/28 08:31:15;;;;;;;6.85;4.13;;;;;;;6.99;100.00;100998.78;5016158;28;20030;-65
2022/12/28 08:33:41;;;;;;;6.95;3.42;;;;;;;7.00;100.00;100992.81;5011724;28;20104;-66
2022/12/28 08:36:08;;;;;;;9.32;3.67;;;;;;;7.01;100.00;101002.34;5011246;28;20124;-66
2022/12/28 08:38:33;;;;;;;7.32;4.10;;;;;;;7.01;100.00;100993.72;5010122;28;20030;-66
2022/12/28 08:41:01;;;;;;;4.43;3.67;;;;;;;7.02;100.00;100992.91;5015686;28;20055;-66
2022/12/28 08:43:27;;;;;;;4.88;3.65;;;;;;;7.04;100.00;100991.28;5011124;28;20046;-66
2022/12/28 08:46:01;;;;;;;8.05;4.45;;;;;;;7.06;100.00;100997.41;5013995;28;20378;-65
2022/12/28 08:48:27;;;;;;;4.82;3.65;;;;;;;7.06;100.00;101000.88;5012420;28;20033;-66
2022/12/28 08:50:53;;;;;;;6.25;3.88;;;;;;;7.07;100.00;100999.16;5010610;28;20053;-65
2022/12/28 08:53:20;;;;;;;9.50;4.43;;;;;;;7.10;100.00;100996.75;5013768;28;20028;-66
2022/12/28 08:55:46;;;;;;;8.10;3.83;;;;;;;7.11;100.00;101008.81;5016944;28;20100;-66
2022/12/28 08:58:11;;;;;;;7.05;3.85;;;;;;;7.10;100.00;100999.31;5020643;28;20100;-66
2022/12/28 09:00:43;;;;;;;5.28;3.25;;;;;;;7.09;100.00;100992.38;5013894;28;20038;-66
2022/12/28 09:03:08;;;;;;;4.00;3.40;;;;;;;7.10;100.00;100996.75;5027926;28;20029;-66
2022/12/28 09:05:38;;;;;;;5.18;3.95;;;;;;;7.09;100.00;100989.81;5033669;28;20040;-66
2022/12/28 09:08:04;;;;;;;5.00;4.05;;;;;;;7.09;100.00;101001.00;5013042;28;20056;-66
2022/12/28 09:10:29;;;;;;;6.47;3.55;;;;;;;7.09;100.00;100998.44;5012572;28;20531;-66
2022/12/28 09:12:55;;;;;;;5.82;3.33;;;;;;;7.09;100.00;100992.38;5015457;28;20040;-66
2022/12/28 09:15:20;;;;;;;3.42;3.08;;;;;;;7.11;100.00;100998.50;5017967;28;20032;-66
2022/12/28 09:17:46;;;;;;;9.50;3.88;;;;;;;7.14;100.00;100997.78;5011600;28;20033;-66
2022/12/28 09:20:12;;;;;;;5.15;3.38;;;;;;;7.13;100.00;100994.31;5010275;28;20056;-65
2022/12/28 09:22:37;;;;;;;4.30;3.47;;;;;;;7.12;100.00;101000.28;5014700;28;20029;-66
2022/12/28 09:25:02;;;;;;;3.60;3.30;;;;;;;7.13;100.00;101002.03;5020213;28;20390;-66
2022/12/28 09:27:28;;;;;;;3.17;2.88;;;;;;;7.14;100.00;101003.81;5028170;28;20025;-66
2022/12/28 09:29:53;;;;;;;6.03;3.40;;;;;;;7.15;100.00;101005.59;5029564;28;20488;-66
2022/12/28 09:32:18;;;;;;;4.45;3.22;;;;;;;7.15;100.00;101000.44;5018536;28;20123;-66
2022/12/28 09:34:43;;;;;;;3.78;3.13;;;;;;;7.17;100.00;101003.97;5019568;28;20029;-66
2022/12/28 09:37:09;;;;;;;6.13;2.67;;;;;;;7.20;100.00;100998.06;5018606;28;20478;-67
2022/12/28 09:39:34;;;;;;;4.60;2.75;;;;;;;7.21;100.00;101005.00;5016663;28;20084;-66
2022/12/28 09:42:05;;;;;;;4.20;3.38;;;;;;;7.21;100.00;100999.84;5017449;28;20029;-66
2022/12/28 09:44:54;;;;;;;4.65;2.72;;;;;;;7.25;100.00;101000.88;5013678;28;20114;-67
2022/12/28 09:47:43;;;;;;;4.88;2.30;;;;;;;7.27;100.00;101009.53;5012374;28;20044;-67
2022/12/28 09:50:14;;;;;;;3.33;2.80;;;;;;;7.29;100.00;100997.63;5016044;28;20053;-67
2022/12/28 09:53:07;;;;;;;2.58;2.38;;;;;;;7.31;100.00;100999.47;5009336;28;20033;-67
2022/12/28 09:55:35;;;;;;;3.30;2.00;;;;;;;7.32;100.00;100997.78;5009664;28;20080;-66
2022/12/28 09:58:02;;;;;;;4.65;2.15;;;;;;;7.32;100.00;101002.94;5011293;28;20030;-66
2022/12/28 10:00:37;;;;;;;4.65;2.20;;;;;;;7.34;100.00;100998.72;5007941;28;20034;-66
2022/12/28 10:03:10;;;;;;;2.15;1.90;;;;;;;7.37;100.00;100996.31;5009884;28;20025;-66
2022/12/28 10:05:36;;;;;;;2.58;2.28;;;;;;;7.36;100.00;100999.69;5011130;28;20026;-66
2022/12/28 10:08:02;;;;;;;3.50;2.22;;;;;;;7.34;100.00;100996.16;5023548;28;20144;-67
2022/12/28 10:10:28;;;;;;;3.53;2.45;;;;;;;7.34;100.00;100985.84;5014525;28;20025;-66
2022/12/28 10:12:54;;;;;;;2.38;1.52;;;;;;;7.35;100.00;100982.47;5008747;28;20033;-66
2022/12/28 10:15:24;;;;;;;2.25;1.65;;;;;;;7.35;100.00;100981.56;5009325;28;20029;-66
2022/12/28 10:17:49;;;;;;;2.50;1.60;;;;;;;7.33;100.00;100984.97;5013699;28;20021;-66
2022/12/28 10:20:17;;;;;;;2.78;2.03;;;;;;;7.35;100.00;100972.16;5013628;28;20040;-66
2022/12/28 10:22:43;;;;;;;3.25;1.98;;;;;;;7.35;100.00;100973.84;5011766;28;20422;-67
2022/12/28 10:25:18;;;;;;;3.50;1.80;;;;;;;7.33;100.00;100978.91;5009101;28;20037;-66
2022/12/28 10:27:43;;;;;;;3.20;2.05;;;;;;;7.31;100.00;100977.97;5010895;28;20017;-66
2022/12/28 10:30:25;;;;;;;2.40;1.88;;;;;;;7.33;100.00;100973.75;5007977;28;20036;-67
2022/12/28 10:32:56;;;;;;;2.53;2.08;;;;;;;7.34;100.00;100965.22;5012783;28;20049;-66
2022/12/28 10:35:40;;;;;;;1.83;1.70;;;;;;;7.36;100.00;100976.47;5017243;28;20410;-66
2022/12/28 10:38:18;;;;;;;3.83;2.20;;;;;;;7.35;100.00;100966.09;5014369;28;20087;-66
2022/12/28 10:40:44;;;;;;;2.75;2.30;;;;;;;7.35;100.00;100960.94;5010883;28;20446;-66
2022/12/28 10:43:18;;;;;;;2.60;2.40;;;;;;;7.36;100.00;100968.75;5007766;28;20061;-66
2022/12/28 10:45:49;;;;;;;2.38;2.17;;;;;;;7.36;100.00;100967.88;5008572;28;20026;-66
2022/12/28 10:48:16;;;;;;;;;;;;;;;7.38;100.00;100961.97;5009102;28;20034;-66
2022/12/28 10:51:00;;;;;;;3.40;2.75;;;;;;;7.37;100.00;100965.38;5009104;28;20017;-67
2022/12/28 10:53:31;;;;;;;3.28;2.33;;;;;;;7.39;100.00;100961.19;5016414;28;20029;-66
2022/12/28 10:56:24;;;;;;;3.67;2.55;;;;;;;7.40;100.00;100960.34;5007797;28;20110;-66
2022/12/28 10:58:52;;;;;;;3.63;2.47;;;;;;;7.39;100.00;100968.91;5004450;28;20376;-66
2022/12/28 11:01:24;;;;;;;3.88;2.83;;;;;;;7.40;100.00;100955.19;5011378;28;20022;-66
2022/12/28 11:03:55;;;;;;;3.60;3.03;;;;;;;7.39;100.00;100950.88;5007781;28;20018;-66
2022/12/28 11:06:23;;;;;;;4.10;2.70;;;;;;;7.39;100.00;100948.28;5011464;28;20018;-66
2022/12/28 11:09:00;;;;;;;3.22;2.53;;;;;;;7.41;100.00;100956.94;5007587;28;20029;-66
2022/12/28 11:11:25;;;;;;;4.63;3.00;;;;;;;7.43;100.00;100949.28;5009827;28;20466;-66
2022/12/28 11:13:57;;;;;;;4.25;3.17;;;;;;;7.41;100.00;100948.34;5008539;28;20565;-66
2022/12/28 11:16:23;;;;;;;4.30;3.42;;;;;;;7.43;100.00;100942.44;5015938;28;20494;-66
2022/12/28 11:18:49;;;;;;;4.97;3.40;;;;;;;7.45;100.00;100932.19;5011058;28;20120;-66
2022/12/28 11:21:18;;;;;;;3.85;2.60;;;;;;;7.43;100.00;100934.72;5018882;28;20100;-66
2022/12/28 11:23:45;;;;;;;3.05;2.75;;;;;;;7.45;100.00;100927.94;5015186;28;20033;-66
2022/12/28 11:26:11;;;;;;;5.35;3.20;;;;;;;7.46;100.00;100928.81;5018072;28;20040;-66
2022/12/28 11:28:40;;;;;;;5.68;2.80;;;;;;;7.45;100.00;100929.63;5022548;28;20037;-66
2022/12/28 11:31:07;;;;;;;4.03;2.80;;;;;;;7.47;100.00;100929.69;5026901;28;20018;-66
2022/12/28 11:33:46;;;;;;;3.30;3.00;;;;;;;7.48;100.00;100918.56;5017972;28;20485;-66
2022/12/28 11:36:18;;;;;;;4.95;2.70;;;;;;;7.48;100.00;100919.47;5022278;28;20774;-66
2022/12/28 11:38:46;;;;;;;2.72;2.30;;;;;;;7.51;100.00;100910.97;5009147;28;20081;-66
2022/12/28 11:41:23;;;;;;;4.28;2.50;;;;;;;7.51;100.00;100908.38;5007184;28;20037;-66
2022/12/28 11:44:00;;;;;;;4.07;2.78;;;;;;;7.52;100.00;100905.03;5006023;28;20080;-66
2022/12/28 11:46:25;;;;;;;5.32;2.58;;;;;;;7.51;100.00;100898.97;5007253;28;20044;-66
2022/12/28 11:48:53;;;;;;;4.55;2.58;;;;;;;7.53;100.00;100889.59;5010045;28;20473;-66
2022/12/28 11:51:25;;;;;;;4.53;2.75;;;;;;;7.53;100.00;100893.88;5012234;28;20049;-66
2022/12/28 11:54:03;;;;;;;5.00;2.20;;;;;;;7.56;100.00;100888.84;5013847;28;20036;-66
2022/12/28 11:56:43;;;;;;;3.25;2.05;;;;;;;7.54;100.00;100893.06;5011870;28;20109;-66
2022/12/28 11:59:38;;;;;;;3.28;1.95;;;;;;;7.54;100.00;100885.31;5007109;28;20517;-66